Time,TemperatureF,DewpointF,PressureIn,WindDirection,WindDirectionDegrees,WindSpeedMPH,WindSpeedGustMPH,Humidity,HourlyPrecipIn,Conditions,Clouds,dailyrainin,SoftwareType,DateUTC
2013-06-22 00:00:00,64.9,58.2,30.26,West,275,2.0,2.0,79,0.00,,,0.00,Wunderground v.1.15,2013-06-22 04:00:00,
2013-06-22 00:05:00,64.9,58.2,30.26,West,267,2.0,2.0,79,0.00,,,0.00,Wunderground v.1.15,2013-06-22 04:05:00,
2013-06-22 00:10:00,64.9,58.2,30.26,WSW,252,2.0,2.0,79,0.00,,,0.00,Wunderground v.1.15,2013-06-22 04:10:00,
2013-06-22 00:15:00,65.0,58.3,30.26,WSW,246,3.0,4.0,79,0.00,,,0.00,Wunderground v.1.15,2013-06-22 04:15:00,
2013-06-22 00:21:00,64.9,58.2,30.26,South,191,2.0,2.0,79,0.00,,,0.00,Wunderground v.1.15,2013-06-22 04:21:00,
2013-06-22 00:26:00,64.9,58.2,30.26,West,278,2.0,3.0,79,0.00,,,0.00,Wunderground v.1.15,2013-06-22 04:26:00,
2013-06-22 07:51:00,66.0,63.6,30.24,WSW,242,3.0,3.0,92,0.00,,,0.00,Wunderground v.1.15,2013-06-22 11:51:00,
2013-06-22 07:56:00,66.1,63.7,30.25,South,187,3.0,3.0,92,0.00,,,0.00,Wunderground v.1.15,2013-06-22 11:56:00,
2013-06-22 08:01:00,66.5,64.1,30.24,SSW,212,3.0,5.0,92,0.00,,,0.00,Wunderground v.1.15,2013-06-22 12:01:00,
2013-06-22 08:06:00,66.6,63.9,30.25,South,184,4.0,6.0,91,0.00,,,0.00,Wunderground v.1.15,2013-06-22 12:06:00,
2013-06-22 08:11:00,66.4,63.7,30.25,SSW,201,5.0,5.0,91,0.00,,,0.00,Wunderground v.1.15,2013-06-22 12:11:00,
2013-06-22 08:21:00,66.4,63.7,30.25,SSE,153,5.0,5.0,91,0.00,,,0.00,Wunderground v.1.15,2013-06-22 12:21:00,
2013-06-22 08:26:00,66.8,64.4,30.25,SSW,193,4.0,5.0,92,0.00,,,0.00,Wunderground v.1.15,2013-06-22 12:26:00,
2013-06-22 08:31:00,67.5,64.8,30.25,SSW,194,3.0,3.0,91,0.00,,,0.00,Wunderground v.1.15,2013-06-22 12:31:00,
2013-06-22 08:41:00,68.0,64.3,30.25,WSW,240,3.0,7.0,88,0.00,,,0.00,Wunderground v.1.15,2013-06-22 12:41:00,
2013-06-22 08:46:00,68.0,64.3,30.25,SSW,207,3.0,7.0,88,0.00,,,0.00,Wunderground v.1.15,2013-06-22 12:46:00,
2013-06-22 08:55:00,68.3,63.9,30.25,West,259,3.0,5.0,86,0.00,,,0.00,Wunderground v.1.15,2013-06-22 12:55:00,
2013-06-22 09:00:00,68.4,64.4,30.25,SSW,192,4.0,5.0,87,0.00,,,0.00,Wunderground v.1.15,2013-06-22 13:00:00,
2013-06-22 09:05:00,68.8,64.4,30.25,West,271,4.0,5.0,86,0.00,,,0.00,Wunderground v.1.15,2013-06-22 13:05:00,
2013-06-22 09:11:00,69.2,65.2,30.25,SW,226,3.0,3.0,87,0.00,,,0.00,Wunderground v.1.15,2013-06-22 13:11:00,
2013-06-22 09:16:00,69.3,64.6,30.24,West,264,4.0,5.0,85,0.00,,,0.00,Wunderground v.1.15,2013-06-22 13:16:00,
2013-06-22 09:21:00,69.4,64.0,30.24,SW,236,4.0,4.0,83,0.00,,,0.00,Wunderground v.1.15,2013-06-22 13:21:00,
2013-06-22 09:31:00,69.6,62.8,30.25,WSW,243,4.0,4.0,79,0.00,,,0.00,Wunderground v.1.15,2013-06-22 13:31:00,
2013-06-22 09:36:00,69.6,61.3,30.25,WNW,291,4.0,4.0,75,0.00,,,0.00,Wunderground v.1.15,2013-06-22 13:36:00,
2013-06-22 09:46:00,70.5,60.6,30.25,West,267,3.0,7.0,71,0.00,,,0.00,Wunderground v.1.15,2013-06-22 13:46:00,
2013-06-22 09:51:00,70.7,60.8,30.25,West,264,4.0,4.0,71,0.00,,,0.00,Wunderground v.1.15,2013-06-22 13:51:00,
2013-06-22 09:56:00,70.7,60.0,30.25,SW,225,4.0,4.0,69,0.00,,,0.00,Wunderground v.1.15,2013-06-22 13:56:00,
2013-06-22 10:01:00,70.6,61.1,30.25,SSW,195,5.0,5.0,72,0.00,,,0.00,Wunderground v.1.15,2013-06-22 14:01:00,
2013-06-22 10:06:00,70.5,61.4,30.25,WSW,243,5.0,5.0,73,0.00,,,0.00,Wunderground v.1.15,2013-06-22 14:06:00,
2013-06-22 10:11:00,70.5,61.4,30.25,West,263,5.0,7.0,73,0.00,,,0.00,Wunderground v.1.15,2013-06-22 14:11:00,
2013-06-22 10:20:00,70.0,60.2,30.26,SSW,211,6.0,6.0,71,0.00,,,0.00,Wunderground v.1.15,2013-06-22 14:20:00,
2013-06-22 10:25:00,70.5,61.0,30.26,SSW,208,5.0,6.0,72,0.00,,,0.00,Wunderground v.1.15,2013-06-22 14:25:00,
2013-06-22 10:30:00,70.6,61.1,30.26,WSW,249,5.0,5.0,72,0.00,,,0.00,Wunderground v.1.15,2013-06-22 14:30:00,
2013-06-22 10:35:00,70.7,60.4,30.26,WSW,240,5.0,7.0,70,0.00,,,0.00,Wunderground v.1.15,2013-06-22 14:35:00,
2013-06-22 10:40:00,71.2,61.3,30.26,SSW,207,5.0,6.0,71,0.00,,,0.00,Wunderground v.1.15,2013-06-22 14:40:00,
2013-06-22 10:45:00,71.2,59.3,30.27,SW,221,4.0,9.0,66,0.00,,,0.00,Wunderground v.1.15,2013-06-22 14:45:00,
2013-06-22 10:51:00,71.0,59.5,30.27,WSW,238,5.0,7.0,67,0.00,,,0.00,Wunderground v.1.15,2013-06-22 14:51:00,
2013-06-22 10:55:00,70.9,59.0,30.27,SSW,211,6.0,7.0,66,0.00,,,0.00,Wunderground v.1.15,2013-06-22 14:55:00,
2013-06-22 11:01:00,71.4,60.3,30.27,WSW,249,5.0,8.0,68,0.00,,,0.00,Wunderground v.1.15,2013-06-22 15:01:00,
2013-06-22 11:06:00,71.5,60.8,30.27,South,169,5.0,8.0,69,0.00,,,0.00,Wunderground v.1.15,2013-06-22 15:06:00,
2013-06-22 11:11:00,71.6,60.1,30.27,SE,132,4.0,5.0,67,0.00,,,0.00,Wunderground v.1.15,2013-06-22 15:11:00,
2013-06-22 11:16:00,71.3,58.9,30.27,SSE,166,4.0,5.0,65,0.00,,,0.00,Wunderground v.1.15,2013-06-22 15:16:00,
2013-06-22 11:21:00,71.4,59.4,30.27,SW,226,5.0,10.0,66,0.00,,,0.00,Wunderground v.1.15,2013-06-22 15:21:00,
2013-06-22 11:31:00,71.8,58.5,30.27,WSW,238,5.0,9.0,63,0.00,,,0.00,Wunderground v.1.15,2013-06-22 15:31:00,
2013-06-22 11:36:00,72.2,58.9,30.27,West,259,4.0,9.0,63,0.00,,,0.00,Wunderground v.1.15,2013-06-22 15:36:00,
2013-06-22 11:46:00,72.4,60.0,30.27,South,180,5.0,5.0,65,0.00,,,0.00,Wunderground v.1.15,2013-06-22 15:46:00,
2013-06-22 11:51:00,72.5,60.9,30.27,SSE,167,5.0,5.0,67,0.00,,,0.00,Wunderground v.1.15,2013-06-22 15:51:00,
2013-06-22 11:56:00,72.8,60.8,30.27,South,181,5.0,5.0,66,0.00,,,0.00,Wunderground v.1.15,2013-06-22 15:56:00,
2013-06-22 12:01:00,73.0,60.5,30.26,SSW,210,5.0,5.0,65,0.00,,,0.00,Wunderground v.1.15,2013-06-22 16:01:00,
2013-06-22 12:06:00,72.6,59.7,30.26,SSW,211,6.0,6.0,64,0.00,,,0.00,Wunderground v.1.15,2013-06-22 16:06:00,
2013-06-22 12:11:00,72.6,60.2,30.26,SW,217,7.0,8.0,65,0.00,,,0.00,Wunderground v.1.15,2013-06-22 16:11:00,
2013-06-22 12:20:00,73.1,59.8,30.26,WSW,249,5.0,5.0,63,0.00,,,0.00,Wunderground v.1.15,2013-06-22 16:20:00,
2013-06-22 12:25:00,73.0,61.0,30.26,SW,222,5.0,6.0,66,0.00,,,0.00,Wunderground v.1.15,2013-06-22 16:25:00,
2013-06-22 12:30:00,73.1,60.6,30.25,WSW,249,5.0,7.0,65,0.00,,,0.00,Wunderground v.1.15,2013-06-22 16:30:00,
2013-06-22 12:35:00,73.0,61.0,30.26,SSW,211,5.0,7.0,66,0.00,,,0.00,Wunderground v.1.15,2013-06-22 16:35:00,
2013-06-22 12:46:00,72.9,60.4,30.25,SW,219,6.0,6.0,65,0.00,,,0.00,Wunderground v.1.15,2013-06-22 16:46:00,
2013-06-22 12:51:00,73.1,60.6,30.25,SW,233,5.0,6.0,65,0.00,,,0.00,Wunderground v.1.15,2013-06-22 16:51:00,
2013-06-22 12:56:00,73.0,61.8,30.25,WSW,243,5.0,6.0,68,0.00,,,0.00,Wunderground v.1.15,2013-06-22 16:56:00,
2013-06-22 13:01:00,73.2,61.2,30.25,West,274,5.0,5.0,66,0.00,,,0.00,Wunderground v.1.15,2013-06-22 17:01:00,
2013-06-22 13:11:00,73.5,62.3,30.24,NW,306,5.0,5.0,68,0.00,,,0.00,Wunderground v.1.15,2013-06-22 17:11:00,
2013-06-22 13:16:00,74.0,62.8,30.24,WNW,283,4.0,5.0,68,0.00,,,0.00,Wunderground v.1.15,2013-06-22 17:16:00,
2013-06-22 13:21:00,74.5,63.7,30.24,SSE,162,4.0,4.0,69,0.00,,,0.00,Wunderground v.1.15,2013-06-22 17:21:00,
2013-06-22 13:26:00,74.5,63.2,30.24,SSW,211,5.0,7.0,68,0.00,,,0.00,Wunderground v.1.15,2013-06-22 17:26:00,
2013-06-22 13:31:00,74.3,63.1,30.24,SW,230,5.0,5.0,68,0.00,,,0.00,Wunderground v.1.15,2013-06-22 17:31:00,
2013-06-22 13:41:00,74.5,62.8,30.24,SE,135,4.0,4.0,67,0.00,,,0.00,Wunderground v.1.15,2013-06-22 17:41:00,
2013-06-22 13:46:00,74.2,62.5,30.24,SSE,163,5.0,6.0,67,0.00,,,0.00,Wunderground v.1.15,2013-06-22 17:46:00,
2013-06-22 13:56:00,74.4,62.7,30.23,SSW,212,4.0,5.0,67,0.00,,,0.00,Wunderground v.1.15,2013-06-22 17:56:00,
2013-06-22 14:01:00,74.2,63.0,30.23,SW,235,5.0,6.0,68,0.00,,,0.00,Wunderground v.1.15,2013-06-22 18:01:00,
2013-06-22 14:06:00,74.4,63.6,30.23,SSW,194,4.0,6.0,69,0.00,,,0.00,Wunderground v.1.15,2013-06-22 18:06:00,
2013-06-22 14:11:00,74.5,63.2,30.23,SW,217,4.0,4.0,68,0.00,,,0.00,Wunderground v.1.15,2013-06-22 18:11:00,
2013-06-22 14:16:00,74.5,63.2,30.23,South,186,4.0,7.0,68,0.00,,,0.00,Wunderground v.1.15,2013-06-22 18:16:00,
2013-06-22 14:21:00,74.4,63.1,30.23,WSW,240,5.0,6.0,68,0.00,,,0.00,Wunderground v.1.15,2013-06-22 18:21:00,
2013-06-22 14:26:00,74.1,63.3,30.23,SSW,207,6.0,6.0,69,0.00,,,0.00,Wunderground v.1.15,2013-06-22 18:26:00,
2013-06-22 14:31:00,74.5,63.2,30.23,SW,233,5.0,7.0,68,0.00,,,0.00,Wunderground v.1.15,2013-06-22 18:31:00,
2013-06-22 14:36:00,74.5,64.1,30.23,South,172,5.0,7.0,70,0.00,,,0.00,Wunderground v.1.15,2013-06-22 18:36:00,
2013-06-22 14:45:00,73.7,61.6,30.23,South,190,7.0,10.0,66,0.00,,,0.00,Wunderground v.1.15,2013-06-22 18:45:00,
2013-06-22 14:50:00,73.2,62.8,30.23,South,184,5.0,6.0,70,0.00,,,0.00,Wunderground v.1.15,2013-06-22 18:50:00,
2013-06-22 14:55:00,73.1,63.5,30.23,SSE,166,5.0,6.0,72,0.00,,,0.00,Wunderground v.1.15,2013-06-22 18:55:00,
2013-06-22 15:00:00,72.6,63.8,30.22,SW,227,6.0,6.0,74,0.00,,,0.00,Wunderground v.1.15,2013-06-22 19:00:00,
2013-06-22 15:05:00,72.2,63.8,30.22,SSW,211,7.0,7.0,75,0.00,,,0.00,Wunderground v.1.15,2013-06-22 19:05:00,
2013-06-22 15:10:00,72.2,63.4,30.21,SSE,149,7.0,7.0,74,0.00,,,0.00,Wunderground v.1.15,2013-06-22 19:10:00,
2013-06-22 15:15:00,72.1,63.4,30.21,South,169,7.0,7.0,74,0.00,,,0.00,Wunderground v.1.15,2013-06-22 19:15:00,
2013-06-22 15:20:00,71.8,63.1,30.21,SSE,159,7.0,10.0,74,0.00,,,0.00,Wunderground v.1.15,2013-06-22 19:20:00,
2013-06-22 15:25:00,71.9,62.8,30.21,South,176,7.0,10.0,73,0.00,,,0.00,Wunderground v.1.15,2013-06-22 19:25:00,
2013-06-22 15:30:00,72.2,62.3,30.21,SSE,166,6.0,7.0,71,0.00,,,0.00,Wunderground v.1.15,2013-06-22 19:30:00,
2013-06-22 15:35:00,72.0,61.7,30.21,South,181,7.0,7.0,70,0.00,,,0.00,Wunderground v.1.15,2013-06-22 19:35:00,
2013-06-22 15:40:00,72.1,61.8,30.21,South,174,7.0,7.0,70,0.00,,,0.00,Wunderground v.1.15,2013-06-22 19:40:00,
2013-06-22 15:45:00,72.5,61.7,30.21,SE,130,6.0,7.0,69,0.00,,,0.00,Wunderground v.1.15,2013-06-22 19:45:00,
2013-06-22 15:50:00,72.2,61.0,30.21,South,169,6.0,9.0,68,0.00,,,0.00,Wunderground v.1.15,2013-06-22 19:50:00,
2013-06-22 15:55:00,72.0,61.7,30.21,South,174,7.0,9.0,70,0.00,,,0.00,Wunderground v.1.15,2013-06-22 19:55:00,
2013-06-22 16:01:00,71.7,62.2,30.21,SW,219,7.0,11.0,72,0.00,,,0.00,Wunderground v.1.15,2013-06-22 20:01:00,
2013-06-22 16:06:00,71.6,62.9,30.20,SE,139,7.0,11.0,74,0.00,,,0.00,Wunderground v.1.15,2013-06-22 20:06:00,
2013-06-22 16:11:00,71.3,62.6,30.20,SSE,166,7.0,7.0,74,0.00,,,0.00,Wunderground v.1.15,2013-06-22 20:11:00,
2013-06-22 16:16:00,71.0,62.7,30.20,SSE,161,8.0,8.0,75,0.00,,,0.00,Wunderground v.1.15,2013-06-22 20:16:00,
2013-06-22 16:21:00,70.9,63.3,30.20,SE,140,8.0,8.0,77,0.00,,,0.00,Wunderground v.1.15,2013-06-22 20:21:00,
2013-06-22 16:26:00,70.6,63.4,30.20,SW,219,7.0,8.0,78,0.00,,,0.00,Wunderground v.1.15,2013-06-22 20:26:00,
2013-06-22 16:31:00,70.6,63.4,30.20,SSE,167,7.0,8.0,78,0.00,,,0.00,Wunderground v.1.15,2013-06-22 20:31:00,
2013-06-22 16:36:00,70.6,63.4,30.20,SW,229,7.0,8.0,78,0.00,,,0.00,Wunderground v.1.15,2013-06-22 20:36:00,
2013-06-22 16:41:00,71.0,63.8,30.20,SSE,166,7.0,7.0,78,0.00,,,0.00,Wunderground v.1.15,2013-06-22 20:41:00,
2013-06-22 16:46:00,71.6,63.6,30.20,South,170,5.0,7.0,76,0.00,,,0.00,Wunderground v.1.15,2013-06-22 20:46:00,
2013-06-22 16:55:00,71.9,63.2,30.19,SW,219,5.0,6.0,74,0.00,,,0.00,Wunderground v.1.15,2013-06-22 20:55:00,
2013-06-22 17:00:00,71.9,62.8,30.19,South,180,6.0,6.0,73,0.00,,,0.00,Wunderground v.1.15,2013-06-22 21:00:00,
2013-06-22 17:05:00,72.0,62.9,30.19,South,179,6.0,6.0,73,0.00,,,0.00,Wunderground v.1.15,2013-06-22 21:05:00,
2013-06-22 17:15:00,71.3,62.2,30.18,SSW,210,6.0,7.0,73,0.00,,,0.00,Wunderground v.1.15,2013-06-22 21:15:00,
2013-06-22 17:25:00,70.9,61.8,30.18,SW,224,5.0,9.0,73,0.00,,,0.00,Wunderground v.1.15,2013-06-22 21:25:00,
2013-06-22 17:30:00,71.1,61.2,30.18,West,262,5.0,5.0,71,0.00,,,0.00,Wunderground v.1.15,2013-06-22 21:30:00,
2013-06-22 17:35:00,71.5,62.0,30.18,SSE,148,5.0,5.0,72,0.00,,,0.00,Wunderground v.1.15,2013-06-22 21:35:00,
2013-06-22 17:41:00,71.2,62.1,30.18,SSW,198,4.0,4.0,73,0.00,,,0.00,Wunderground v.1.15,2013-06-22 21:41:00,
2013-06-22 17:46:00,71.3,63.0,30.18,SSW,204,3.0,4.0,75,0.00,,,0.00,Wunderground v.1.15,2013-06-22 21:46:00,
2013-06-22 17:51:00,71.2,61.7,30.18,SW,219,4.0,4.0,72,0.00,,,0.00,Wunderground v.1.15,2013-06-22 21:51:00,
2013-06-22 17:56:00,71.5,62.0,30.18,ESE,111,4.0,4.0,72,0.00,,,0.00,Wunderground v.1.15,2013-06-22 21:56:00,
2013-06-22 18:01:00,71.6,62.1,30.18,South,170,3.0,3.0,72,0.00,,,0.00,Wunderground v.1.15,2013-06-22 22:01:00,
2013-06-22 18:06:00,71.5,62.4,30.18,SE,144,3.0,3.0,73,0.00,,,0.00,Wunderground v.1.15,2013-06-22 22:06:00,
2013-06-22 18:11:00,70.7,63.1,30.18,SSW,194,3.0,4.0,77,0.00,,,0.00,Wunderground v.1.15,2013-06-22 22:11:00,
2013-06-22 18:16:00,69.8,63.3,30.18,South,174,4.0,4.0,80,0.00,,,0.00,Wunderground v.1.15,2013-06-22 22:16:00,
2013-06-22 18:21:00,69.1,63.4,30.18,SSW,211,4.0,4.0,82,0.00,,,0.00,Wunderground v.1.15,2013-06-22 22:21:00,
2013-06-22 18:26:00,68.8,63.4,30.18,SSW,203,4.0,6.0,83,0.00,,,0.00,Wunderground v.1.15,2013-06-22 22:26:00,
2013-06-22 18:31:00,68.5,63.5,30.18,SSE,156,4.0,4.0,84,0.00,,,0.00,Wunderground v.1.15,2013-06-22 22:31:00,
2013-06-22 18:36:00,68.2,63.5,30.18,SSE,167,5.0,6.0,85,0.00,,,0.00,Wunderground v.1.15,2013-06-22 22:36:00,
2013-06-22 18:41:00,68.0,63.7,30.18,SSE,150,5.0,5.0,86,0.00,,,0.00,Wunderground v.1.15,2013-06-22 22:41:00,
2013-06-22 18:46:00,67.9,63.6,30.18,South,187,5.0,5.0,86,0.00,,,0.00,Wunderground v.1.15,2013-06-22 22:46:00,
2013-06-22 18:55:00,67.6,63.6,30.17,SSW,202,5.0,5.0,87,0.00,,,0.00,Wunderground v.1.15,2013-06-22 22:55:00,
2013-06-22 19:01:00,67.5,63.5,30.17,South,183,5.0,5.0,87,0.00,,,0.00,Wunderground v.1.15,2013-06-22 23:01:00,
2013-06-22 19:10:00,67.2,63.5,30.17,SSW,201,3.0,3.0,88,0.00,,,0.00,Wunderground v.1.15,2013-06-22 23:10:00,
2013-06-22 19:15:00,67.0,63.6,30.17,SW,217,4.0,5.0,89,0.00,,,0.00,Wunderground v.1.15,2013-06-22 23:15:00,
2013-06-22 19:20:00,67.0,63.3,30.17,SW,215,4.0,4.0,88,0.00,,,0.00,Wunderground v.1.15,2013-06-22 23:20:00,
2013-06-22 19:25:00,67.0,63.6,30.17,SSW,205,5.0,5.0,89,0.00,,,0.00,Wunderground v.1.15,2013-06-22 23:25:00,
2013-06-22 19:30:00,66.9,63.6,30.17,SSW,206,5.0,5.0,89,0.00,,,0.00,Wunderground v.1.15,2013-06-22 23:30:00,
2013-06-22 19:35:00,67.0,63.6,30.17,South,173,5.0,5.0,89,0.00,,,0.00,Wunderground v.1.15,2013-06-22 23:35:00,
2013-06-22 19:40:00,67.0,63.6,30.16,SW,222,4.0,4.0,89,0.00,,,0.00,Wunderground v.1.15,2013-06-22 23:40:00,
2013-06-22 19:46:00,67.1,63.7,30.17,SSW,201,3.0,4.0,89,0.00,,,0.00,Wunderground v.1.15,2013-06-22 23:46:00,
2013-06-22 19:51:00,67.1,63.7,30.17,SSE,166,2.0,2.0,89,0.00,,,0.00,Wunderground v.1.15,2013-06-22 23:51:00,
2013-06-22 19:56:00,66.8,63.8,30.17,SSW,203,3.0,3.0,90,0.00,,,0.00,Wunderground v.1.15,2013-06-22 23:56:00,
2013-06-22 20:01:00,66.6,63.6,30.17,SSW,210,3.0,3.0,90,0.00,,,0.00,Wunderground v.1.15,2013-06-23 00:01:00,
2013-06-22 20:06:00,66.5,63.8,30.17,SSW,210,3.0,3.0,91,0.00,,,0.00,Wunderground v.1.15,2013-06-23 00:06:00,
2013-06-22 20:16:00,66.2,63.8,30.17,South,172,3.0,6.0,92,0.00,,,0.00,Wunderground v.1.15,2013-06-23 00:16:00,
2013-06-22 20:26:00,65.8,63.4,30.17,South,174,4.0,6.0,92,0.00,,,0.00,Wunderground v.1.15,2013-06-23 00:26:00,
2013-06-22 20:31:00,65.6,63.5,30.17,SSW,208,5.0,5.0,93,0.00,,,0.00,Wunderground v.1.15,2013-06-23 00:31:00,
2013-06-22 20:36:00,65.4,63.6,30.17,SSW,210,5.0,5.0,94,0.00,,,0.00,Wunderground v.1.15,2013-06-23 00:36:00,
2013-06-22 20:41:00,65.3,63.5,30.17,SSW,198,4.0,4.0,94,0.00,,,0.00,Wunderground v.1.15,2013-06-23 00:41:00,
2013-06-22 20:50:00,65.2,63.7,30.17,SSW,207,3.0,4.0,95,0.00,,,0.00,Wunderground v.1.15,2013-06-23 00:50:00,
2013-06-22 20:55:00,65.0,63.5,30.17,SSW,197,3.0,5.0,95,0.00,,,0.00,Wunderground v.1.15,2013-06-23 00:55:00,
2013-06-22 21:00:00,65.0,63.5,30.17,South,184,3.0,3.0,95,0.00,,,0.00,Wunderground v.1.15,2013-06-23 01:00:00,
2013-06-22 21:05:00,64.9,63.7,30.17,SSW,211,3.0,3.0,96,0.00,,,0.00,Wunderground v.1.15,2013-06-23 01:05:00,
2013-06-22 21:10:00,64.9,63.7,30.17,SSW,201,3.0,3.0,96,0.00,,,0.00,Wunderground v.1.15,2013-06-23 01:10:00,
2013-06-22 21:15:00,64.9,63.7,30.17,SSE,157,2.0,3.0,96,0.00,,,0.00,Wunderground v.1.15,2013-06-23 01:15:00,
2013-06-22 21:21:00,65.0,63.8,30.18,SSE,154,2.0,2.0,96,0.00,,,0.00,Wunderground v.1.15,2013-06-23 01:21:00,
2013-06-22 21:30:00,65.0,63.8,30.18,South,190,2.0,3.0,96,0.00,,,0.00,Wunderground v.1.15,2013-06-23 01:30:00,
2013-06-22 21:36:00,64.9,64.0,30.19,SSW,210,2.0,3.0,97,0.00,,,0.00,Wunderground v.1.15,2013-06-23 01:36:00,
2013-06-22 21:41:00,65.0,64.1,30.19,SW,226,3.0,5.0,97,0.00,,,0.00,Wunderground v.1.15,2013-06-23 01:41:00,
2013-06-22 21:46:00,65.0,64.1,30.19,South,191,4.0,5.0,97,0.00,,,0.00,Wunderground v.1.15,2013-06-23 01:46:00,
2013-06-22 21:51:00,65.0,64.1,30.19,SW,217,4.0,4.0,97,0.00,,,0.00,Wunderground v.1.15,2013-06-23 01:51:00,
2013-06-22 21:56:00,64.9,64.0,30.19,SSW,198,3.0,4.0,97,0.00,,,0.00,Wunderground v.1.15,2013-06-23 01:56:00,
2013-06-22 22:01:00,64.7,63.8,30.19,South,184,3.0,3.0,97,0.00,,,0.00,Wunderground v.1.15,2013-06-23 02:01:00,
2013-06-22 22:06:00,64.6,63.7,30.19,SSW,201,3.0,3.0,97,0.00,,,0.00,Wunderground v.1.15,2013-06-23 02:06:00,
2013-06-22 22:16:00,64.5,63.6,30.19,SSW,207,2.0,3.0,97,0.00,,,0.00,Wunderground v.1.15,2013-06-23 02:16:00,
2013-06-22 22:25:00,64.4,63.5,30.19,West,259,0.0,1.0,97,0.00,,,0.00,Wunderground v.1.15,2013-06-23 02:25:00,
2013-06-22 22:30:00,64.3,63.7,30.20,WSW,258,0.0,0.0,98,0.00,,,0.00,Wunderground v.1.15,2013-06-23 02:30:00,
2013-06-22 22:35:00,64.3,63.7,30.19,West,259,0.0,0.0,98,0.00,,,0.00,Wunderground v.1.15,2013-06-23 02:35:00,
2013-06-22 22:40:00,64.3,63.7,30.19,West,259,0.0,0.0,98,0.00,,,0.00,Wunderground v.1.15,2013-06-23 02:40:00,
2013-06-22 22:45:00,64.3,63.7,30.19,West,259,0.0,0.0,98,0.00,,,0.00,Wunderground v.1.15,2013-06-23 02:45:00,
2013-06-22 22:50:00,64.3,63.7,30.19,West,259,0.0,0.0,98,0.00,,,0.00,Wunderground v.1.15,2013-06-23 02:50:00,
2013-06-22 22:55:00,64.2,63.6,30.19,West,259,0.0,0.0,98,0.00,,,0.00,Wunderground v.1.15,2013-06-23 02:55:00,
2013-06-22 23:00:00,64.2,63.6,30.19,West,259,0.0,0.0,98,0.00,,,0.00,Wunderground v.1.15,2013-06-23 03:00:00,
2013-06-22 23:05:00,64.1,63.5,30.20,West,259,0.0,0.0,98,0.00,,,0.00,Wunderground v.1.15,2013-06-23 03:05:00,
2013-06-22 23:10:00,64.0,63.4,30.20,West,259,0.0,0.0,98,0.00,,,0.00,Wunderground v.1.15,2013-06-23 03:10:00,
2013-06-22 23:15:00,64.1,63.5,30.20,South,174,0.0,1.0,98,0.00,,,0.00,Wunderground v.1.15,2013-06-23 03:15:00,
2013-06-22 23:20:00,64.1,63.5,30.19,SSE,149,1.0,1.0,98,0.00,,,0.00,Wunderground v.1.15,2013-06-23 03:20:00,
2013-06-22 23:25:00,64.3,63.7,30.20,SW,214,1.0,1.0,98,0.00,,,0.00,Wunderground v.1.15,2013-06-23 03:25:00,
2013-06-22 23:30:00,64.4,63.8,30.20,South,177,1.0,2.0,98,0.00,,,0.00,Wunderground v.1.15,2013-06-23 03:30:00,
2013-06-22 23:35:00,64.5,63.9,30.20,South,181,2.0,2.0,98,0.00,,,0.00,Wunderground v.1.15,2013-06-23 03:35:00,
2013-06-22 23:40:00,64.5,63.9,30.20,SSW,200,2.0,2.0,98,0.00,,,0.00,Wunderground v.1.15,2013-06-23 03:40:00,
2013-06-22 23:45:00,64.5,64.2,30.20,SSW,203,1.0,2.0,99,0.00,,,0.00,Wunderground v.1.15,2013-06-23 03:45:00,
2013-06-22 23:51:00,64.6,64.3,30.20,SSW,208,0.0,0.0,99,0.00,,,0.00,Wunderground v.1.15,2013-06-23 03:51:00,